createdAt,value
2023-03-24T00:00:20.327Z,26.69
2023-03-24T00:01:20.339Z,26.74
2023-03-24T00:02:20.348Z,26.73
2023-03-24T00:04:20.378Z,26.65
2023-03-24T00:05:20.333Z,26.69
2023-03-24T00:06:20.354Z,26.73
2023-03-24T00:07:21.079Z,26.67
2023-03-24T00:08:20.361Z,26.67
2023-03-24T00:09:20.371Z,26.70
2023-03-24T00:10:20.402Z,26.65
2023-03-24T00:11:20.377Z,26.69
2023-03-24T00:12:20.385Z,26.67
2023-03-24T00:13:20.383Z,26.67
2023-03-24T00:14:20.389Z,26.69
2023-03-24T00:15:20.401Z,26.72
2023-03-24T00:16:20.484Z,26.67
2023-03-24T00:17:20.408Z,26.69
2023-03-24T00:18:20.418Z,26.70
2023-03-24T00:19:20.419Z,26.70
2023-03-24T00:20:20.595Z,26.70
2023-03-24T00:21:20.440Z,26.70
2023-03-24T00:22:20.440Z,26.70
2023-03-24T00:24:20.460Z,26.69
2023-03-24T00:25:20.478Z,26.65
2023-03-24T00:26:20.479Z,26.70
2023-03-24T00:27:20.481Z,26.69
2023-03-24T00:28:20.507Z,26.68
2023-03-24T00:31:20.597Z,26.62
2023-03-24T00:32:20.553Z,26.65
2023-03-24T00:33:20.561Z,26.63
2023-03-24T00:34:20.590Z,26.69
2023-03-24T00:35:20.607Z,26.66
2023-03-24T00:36:20.659Z,26.63
2023-03-24T00:37:20.630Z,26.63
2023-03-24T00:38:20.648Z,26.67
2023-03-24T00:39:20.645Z,26.68
2023-03-24T00:40:20.663Z,26.62
2023-03-24T00:41:20.717Z,26.60
2023-03-24T00:42:20.682Z,26.68
2023-03-24T00:43:20.712Z,26.66
2023-03-24T00:44:20.708Z,26.63
2023-03-24T00:47:20.728Z,26.56
2023-03-24T00:48:20.732Z,26.64
2023-03-24T00:49:20.741Z,26.64
2023-03-24T00:50:20.904Z,26.64
2023-03-24T00:51:20.770Z,26.67
2023-03-24T00:52:20.943Z,26.68
2023-03-24T00:53:20.797Z,26.61
2023-03-24T00:54:20.827Z,26.66
2023-03-24T00:56:20.847Z,26.64
2023-03-24T00:59:20.856Z,26.63
2023-03-24T01:00:20.874Z,26.64
2023-03-24T01:01:20.914Z,26.63
2023-03-24T01:02:20.916Z,26.69
2023-03-24T01:03:20.938Z,26.65
2023-03-24T01:04:20.934Z,26.58
2023-03-24T01:05:20.948Z,26.63
2023-03-24T01:06:20.951Z,26.58
2023-03-24T01:07:20.964Z,26.64
2023-03-24T01:08:20.961Z,26.61
2023-03-24T01:09:20.974Z,26.66
2023-03-24T01:10:20.983Z,26.57
2023-03-24T01:12:21.029Z,26.65
2023-03-24T01:15:21.045Z,26.60
2023-03-24T01:16:21.122Z,26.57
2023-03-24T01:18:21.083Z,26.61
2023-03-24T01:19:21.105Z,26.63
2023-03-24T01:20:21.131Z,26.60
2023-03-24T01:22:21.121Z,26.58
2023-03-24T01:23:21.129Z,26.65
2023-03-24T01:24:21.144Z,26.62
2023-03-24T01:25:21.161Z,26.63
2023-03-24T01:26:21.168Z,26.57
2023-03-24T01:27:21.189Z,26.56
2023-03-24T01:28:21.182Z,26.56
2023-03-24T01:29:21.197Z,26.55
2023-03-24T01:30:21.234Z,26.58
2023-03-24T01:31:21.234Z,26.57
2023-03-24T01:32:21.273Z,26.60
2023-03-24T01:33:21.248Z,26.54
2023-03-24T01:34:21.263Z,26.60
2023-03-24T01:35:21.282Z,26.56
2023-03-24T01:36:21.269Z,26.50
2023-03-24T01:37:21.284Z,26.52
2023-03-24T01:38:21.294Z,26.49
2023-03-24T01:39:21.312Z,26.50
2023-03-24T01:41:21.316Z,26.52
2023-03-24T01:42:21.438Z,26.54
2023-03-24T01:43:21.344Z,26.57
2023-03-24T01:44:21.391Z,26.53
2023-03-24T01:45:21.479Z,26.54
2023-03-24T01:46:21.680Z,26.53
2023-03-24T01:47:21.461Z,26.56
2023-03-24T01:49:21.425Z,26.50
2023-03-24T01:53:22.344Z,26.46
2023-03-24T01:54:22.360Z,26.53
2023-03-24T01:56:21.553Z,26.54
2023-03-24T01:57:21.582Z,26.56
2023-03-24T01:58:21.479Z,26.56
2023-03-24T01:59:21.523Z,26.54
2023-03-24T02:03:21.548Z,26.52
2023-03-24T02:04:21.646Z,26.57
2023-03-24T02:05:21.517Z,26.56
2023-03-24T02:06:21.536Z,26.54
2023-03-24T02:07:21.558Z,26.54
2023-03-24T02:08:21.568Z,26.57
2023-03-24T02:09:21.569Z,26.56
2023-03-24T02:10:21.583Z,26.56
2023-03-24T02:11:21.605Z,26.56
2023-03-24T02:12:21.612Z,26.57
2023-03-24T02:13:21.616Z,26.57
2023-03-24T02:14:21.676Z,26.58
2023-03-24T02:18:21.785Z,26.56
2023-03-24T02:19:23.591Z,26.54
2023-03-24T02:20:21.799Z,26.58
2023-03-24T02:21:21.746Z,26.61
2023-03-24T02:22:21.808Z,26.56
2023-03-24T02:23:22.350Z,26.57
2023-03-24T02:24:22.352Z,26.58
2023-03-24T02:25:21.872Z,26.62
2023-03-24T02:31:21.952Z,26.61
2023-03-24T02:32:21.906Z,26.65
2023-03-24T02:33:21.864Z,26.60
2023-03-24T02:34:21.891Z,26.61
2023-03-24T02:35:21.845Z,26.62
2023-03-24T02:36:21.886Z,26.66
2023-03-24T02:37:21.910Z,26.60
2023-03-24T02:38:21.878Z,26.59
2023-03-24T02:39:21.884Z,26.61
2023-03-24T02:40:21.883Z,26.61
2023-03-24T02:41:21.907Z,26.61
2023-03-24T02:42:21.915Z,26.63
2023-03-24T02:43:21.915Z,26.65
2023-03-24T02:44:21.925Z,26.62
2023-03-24T02:45:21.959Z,26.66
2023-03-24T02:46:21.990Z,26.57
2023-03-24T02:48:21.984Z,26.65
2023-03-24T02:49:21.991Z,26.64
2023-03-24T02:50:22.019Z,26.67
2023-03-24T02:51:22.028Z,26.67
2023-03-24T02:52:22.038Z,26.65
2023-03-24T02:53:22.054Z,26.62
2023-03-24T02:54:22.066Z,26.61
2023-03-24T02:55:22.075Z,26.62
2023-03-24T02:56:22.097Z,26.67
2023-03-24T02:57:22.104Z,26.67
2023-03-24T02:58:22.127Z,26.62
2023-03-24T02:59:22.152Z,26.63
2023-03-24T03:00:22.144Z,26.65
2023-03-24T03:01:22.204Z,26.67
2023-03-24T03:02:22.215Z,26.66
2023-03-24T03:06:22.244Z,26.57
2023-03-24T03:07:22.262Z,26.59
2023-03-24T03:08:22.288Z,26.62
2023-03-24T03:09:22.297Z,26.68
2023-03-24T03:10:22.313Z,26.66
2023-03-24T03:11:22.341Z,26.68
2023-03-24T03:12:22.375Z,26.67
2023-03-24T03:13:22.372Z,26.67
2023-03-24T03:14:22.369Z,26.66
2023-03-24T03:15:22.404Z,26.67
2023-03-24T03:16:22.499Z,26.66
2023-03-24T03:17:22.406Z,26.63
2023-03-24T03:18:22.420Z,26.63
2023-03-24T03:19:22.440Z,26.67
2023-03-24T03:20:22.449Z,26.64
2023-03-24T03:21:22.473Z,26.66
2023-03-24T03:22:22.508Z,26.69
2023-03-24T03:23:22.514Z,26.67
2023-03-24T03:26:22.566Z,26.69
2023-03-24T03:27:22.563Z,26.65
2023-03-24T03:28:22.592Z,26.66
2023-03-24T03:29:22.623Z,26.65
2023-03-24T03:31:22.643Z,26.66
2023-03-24T03:32:22.642Z,26.63
2023-03-24T03:33:22.645Z,26.62
2023-03-24T03:34:22.676Z,26.65
2023-03-24T03:37:22.722Z,26.66
2023-03-24T03:38:22.743Z,26.63
2023-03-24T03:39:22.756Z,26.65
2023-03-24T03:40:22.766Z,26.58
2023-03-24T03:41:22.770Z,26.62
2023-03-24T03:42:22.795Z,26.65
2023-03-24T03:43:22.813Z,26.63
2023-03-24T03:44:22.825Z,26.66
2023-03-24T03:45:22.842Z,26.65
2023-03-24T03:46:22.862Z,26.65
2023-03-24T03:47:23.033Z,26.66
2023-03-24T03:48:22.906Z,26.67
2023-03-24T03:49:22.931Z,26.69
2023-03-24T03:50:22.913Z,26.61
2023-03-24T03:51:22.916Z,26.72
2023-03-24T03:52:22.956Z,26.62
2023-03-24T03:53:23.434Z,26.70
2023-03-24T03:59:23.048Z,26.61
2023-03-24T04:00:25.534Z,26.59
2023-03-24T04:01:23.073Z,26.59
2023-03-24T04:02:23.126Z,26.61
2023-03-24T04:03:23.208Z,26.58
2023-03-24T04:04:23.103Z,26.58
2023-03-24T04:06:23.127Z,26.58
2023-03-24T04:07:23.177Z,26.59
2023-03-24T04:11:23.196Z,26.59
2023-03-24T04:12:23.224Z,26.58
2023-03-24T04:13:23.217Z,26.62
2023-03-24T04:14:23.254Z,26.61
2023-03-24T04:15:23.232Z,26.59
2023-03-24T04:16:23.368Z,26.59
2023-03-24T04:17:23.307Z,26.59
2023-03-24T04:18:23.265Z,26.59
2023-03-24T04:19:23.297Z,26.62
2023-03-24T04:20:23.290Z,26.61
2023-03-24T04:21:23.306Z,26.58
2023-03-24T04:22:23.328Z,26.58
2023-03-24T04:24:23.353Z,26.61
2023-03-24T04:25:23.336Z,26.63
2023-03-24T04:26:23.352Z,26.61
2023-03-24T04:27:23.370Z,26.59
2023-03-24T04:28:23.372Z,26.58
2023-03-24T04:29:23.401Z,26.61
2023-03-24T04:30:23.469Z,26.58
2023-03-24T04:31:23.494Z,26.61
2023-03-24T04:32:23.416Z,26.58
2023-03-24T04:33:23.424Z,26.55
2023-03-24T04:34:23.435Z,26.57
2023-03-24T04:35:23.452Z,26.61
2023-03-24T04:36:23.478Z,26.62
2023-03-24T04:37:23.450Z,26.57
2023-03-24T04:38:23.464Z,26.61
2023-03-24T04:42:23.510Z,26.62
2023-03-24T04:43:23.514Z,26.58
2023-03-24T04:44:23.541Z,26.58
2023-03-24T04:45:23.566Z,26.64
2023-03-24T04:46:23.586Z,26.56
2023-03-24T04:47:23.574Z,26.58
2023-03-24T04:48:23.574Z,26.62
2023-03-24T04:49:23.612Z,26.58
2023-03-24T04:50:23.610Z,26.59
2023-03-24T04:51:23.635Z,26.59
2023-03-24T04:52:23.646Z,26.61
2023-03-24T04:54:23.657Z,26.51
2023-03-24T04:55:23.670Z,26.51
2023-03-24T04:56:23.683Z,26.57
2023-03-24T04:57:23.685Z,26.61
2023-03-24T04:58:23.691Z,26.58
2023-03-24T04:59:23.715Z,26.62
2023-03-24T05:00:23.713Z,26.59
2023-03-24T05:01:23.786Z,26.62
2023-03-24T05:02:23.738Z,26.55
2023-03-24T05:03:23.741Z,26.57
2023-03-24T05:04:23.755Z,26.55
2023-03-24T05:05:23.765Z,26.59
2023-03-24T05:06:23.791Z,26.59
2023-03-24T05:07:23.800Z,26.58
2023-03-24T05:08:23.807Z,26.56
2023-03-24T05:09:23.837Z,26.58
2023-03-24T05:10:23.842Z,26.61
2023-03-24T05:11:23.866Z,26.54
2023-03-24T05:12:23.866Z,26.55
2023-03-24T05:13:23.881Z,26.58
2023-03-24T05:14:23.906Z,26.57
2023-03-24T05:15:23.917Z,26.54
2023-03-24T05:16:23.959Z,26.57
2023-03-24T05:17:23.943Z,26.58
2023-03-24T05:18:23.954Z,26.61
2023-03-24T05:19:23.983Z,26.61
2023-03-24T05:20:23.978Z,26.61
2023-03-24T05:21:23.996Z,26.55
2023-03-24T05:22:24.001Z,26.56
2023-03-24T05:23:24.017Z,26.55
2023-03-24T05:24:24.038Z,26.59
2023-03-24T05:25:24.060Z,26.61
2023-03-24T05:26:24.074Z,26.59
2023-03-24T05:27:24.091Z,26.61
2023-03-24T05:28:24.116Z,26.61
2023-03-24T05:29:24.132Z,26.59
2023-03-24T05:30:24.178Z,26.59
2023-03-24T05:31:24.159Z,26.55
2023-03-24T05:32:24.206Z,26.59
2023-03-24T05:33:24.191Z,26.61
2023-03-24T05:34:24.205Z,26.59
2023-03-24T05:35:24.223Z,26.54
2023-03-24T05:37:24.255Z,26.61
2023-03-24T05:38:24.281Z,26.54
2023-03-24T05:39:24.295Z,26.59
2023-03-24T05:40:24.328Z,26.55
2023-03-24T05:42:24.335Z,26.58
2023-03-24T05:44:24.369Z,26.54
2023-03-24T05:45:24.390Z,26.58
2023-03-24T05:46:26.402Z,26.55
2023-03-24T05:47:24.408Z,26.54
2023-03-24T05:48:24.425Z,26.53
2023-03-24T05:49:24.464Z,26.58
2023-03-24T05:50:24.460Z,26.54
2023-03-24T05:51:24.476Z,26.51
2023-03-24T05:52:25.229Z,26.58
2023-03-24T05:53:24.507Z,26.57
2023-03-24T05:54:24.507Z,26.58
2023-03-24T05:55:24.546Z,26.55
2023-03-24T05:56:24.526Z,26.51
2023-03-24T05:57:24.543Z,26.52
2023-03-24T05:58:24.566Z,26.47
2023-03-24T06:01:24.599Z,26.51
2023-03-24T06:02:24.776Z,26.55
2023-03-24T06:03:24.695Z,26.52
2023-03-24T06:04:24.633Z,26.55
2023-03-24T06:05:24.661Z,26.54
2023-03-24T06:06:24.662Z,26.59
2023-03-24T06:07:24.663Z,26.54
2023-03-24T06:08:24.689Z,26.50
2023-03-24T06:09:24.688Z,26.50
2023-03-24T06:10:24.724Z,26.53
2023-03-24T06:13:24.741Z,26.53
2023-03-24T06:14:25.455Z,26.47
2023-03-24T06:15:24.817Z,26.50
2023-03-24T06:16:24.804Z,26.52
2023-03-24T06:17:24.870Z,26.49
2023-03-24T06:18:24.812Z,26.54
2023-03-24T06:19:24.836Z,26.46
2023-03-24T06:20:24.842Z,26.45
2023-03-24T06:21:24.842Z,26.51
2023-03-24T06:22:24.856Z,26.45
2023-03-24T06:23:24.855Z,26.49
2023-03-24T06:24:24.856Z,26.43
2023-03-24T06:25:24.871Z,26.49
2023-03-24T06:26:24.884Z,26.49
2023-03-24T06:27:24.968Z,26.46
2023-03-24T06:29:24.937Z,26.45
2023-03-24T06:30:24.953Z,26.45
2023-03-24T06:31:25.010Z,26.48
2023-03-24T06:35:25.024Z,27.99
2023-03-24T06:36:24.980Z,28.20
2023-03-24T06:37:24.999Z,28.30
2023-03-24T06:38:24.996Z,28.87
2023-03-24T06:39:25.007Z,28.99
2023-03-24T06:40:25.035Z,29.15
2023-03-24T06:43:25.113Z,29.60
2023-03-24T06:45:25.045Z,29.85
2023-03-24T06:46:25.109Z,29.98
2023-03-24T06:50:25.086Z,30.64
2023-03-24T06:51:25.113Z,30.59
2023-03-24T06:54:25.270Z,31.09
2023-03-24T06:55:25.062Z,30.91
2023-03-24T06:58:25.069Z,31.34
2023-03-24T06:59:25.113Z,31.59
2023-03-24T07:00:25.072Z,31.73
2023-03-24T07:01:25.123Z,31.81
2023-03-24T07:02:25.137Z,31.80
2023-03-24T07:04:25.100Z,31.81
2023-03-24T07:05:25.971Z,32.36
2023-03-24T07:06:25.061Z,31.86
2023-03-24T07:09:25.085Z,32.37
2023-03-24T07:10:25.090Z,32.39
2023-03-24T07:12:25.130Z,32.49
2023-03-24T07:13:25.058Z,32.48
2023-03-24T07:14:25.024Z,32.74
2023-03-24T07:15:25.023Z,32.58
2023-03-24T07:17:25.361Z,32.81
2023-03-24T07:18:24.999Z,32.71
2023-03-24T07:19:25.010Z,32.81
2023-03-24T07:20:24.970Z,32.67
2023-03-24T07:21:24.997Z,32.53
2023-03-24T07:23:24.971Z,32.00
2023-03-24T07:26:24.942Z,31.28
2023-03-24T07:27:24.980Z,31.32
2023-03-24T07:28:24.917Z,31.24
2023-03-24T07:30:37.176Z,30.95
2023-03-24T07:31:25.982Z,30.67
2023-03-24T07:33:24.963Z,30.46
2023-03-24T07:34:24.895Z,30.60
2023-03-24T07:36:24.952Z,30.22
2023-03-24T07:37:24.902Z,30.15
2023-03-24T07:38:24.898Z,30.08
2023-03-24T07:39:24.892Z,30.08
2023-03-24T07:44:24.882Z,29.24
2023-03-24T07:46:24.911Z,28.78
2023-03-24T07:47:25.738Z,28.74
2023-03-24T07:48:24.876Z,28.60
2023-03-24T07:49:24.886Z,28.46
2023-03-24T07:50:24.885Z,28.42
2023-03-24T07:52:24.855Z,28.23
2023-03-24T07:53:24.904Z,28.40
2023-03-24T07:56:24.865Z,28.34
2023-03-24T07:57:24.866Z,28.44
2023-03-24T07:58:24.869Z,28.34
2023-03-24T07:59:26.753Z,28.40
2023-03-24T08:03:24.903Z,28.36
2023-03-24T08:04:24.838Z,28.40
2023-03-24T08:05:24.847Z,28.43
2023-03-24T08:06:24.827Z,28.34
2023-03-24T08:07:24.799Z,28.28
2023-03-24T08:08:24.828Z,28.30
2023-03-24T08:10:24.784Z,28.33
2023-03-24T08:11:24.816Z,28.37
2023-03-24T08:13:24.736Z,28.31
2023-03-24T08:16:24.762Z,28.22
2023-03-24T08:17:24.759Z,28.29
2023-03-24T08:18:24.744Z,28.14
2023-03-24T08:19:24.718Z,28.11
2023-03-24T08:20:24.736Z,28.11
2023-03-24T08:23:24.682Z,28.09
2023-03-24T08:25:24.686Z,28.02
2023-03-24T08:26:24.683Z,28.00
2023-03-24T08:27:24.689Z,28.06
2023-03-24T08:28:24.671Z,27.91
2023-03-24T08:29:24.658Z,28.03
2023-03-24T08:30:24.747Z,27.97
2023-03-24T08:31:24.731Z,27.86
2023-03-24T08:32:24.699Z,28.03
2023-03-24T08:37:24.679Z,27.83
2023-03-24T08:38:24.933Z,30.27
2023-03-24T08:39:24.832Z,29.21
2023-03-24T08:40:24.660Z,29.82
2023-03-24T08:45:24.689Z,29.97
2023-03-24T08:46:24.710Z,29.54
2023-03-24T08:47:24.720Z,30.82
2023-03-24T08:48:24.706Z,30.10
2023-03-24T08:49:24.710Z,30.65
2023-03-24T08:50:24.707Z,29.67
2023-03-24T08:51:24.743Z,30.38
2023-03-24T08:52:25.018Z,30.76
2023-03-24T08:53:25.497Z,29.95
2023-03-24T08:57:24.856Z,30.94
2023-03-24T08:58:24.834Z,30.22
2023-03-24T08:59:24.842Z,30.19
2023-03-24T09:00:24.934Z,30.66
2023-03-24T09:01:24.903Z,30.39
2023-03-24T09:02:24.899Z,30.47
2023-03-24T09:04:24.940Z,29.48
2023-03-24T09:05:37.133Z,30.44
2023-03-24T09:06:25.991Z,38.55
2023-03-24T09:07:25.268Z,30.39
2023-03-24T09:08:24.961Z,31.12
2023-03-24T09:09:25.075Z,28.99
2023-03-24T09:10:25.057Z,29.47
2023-03-24T09:11:25.128Z,29.50
2023-03-24T09:12:25.150Z,29.71
2023-03-24T09:13:25.282Z,29.27
2023-03-24T09:14:25.097Z,29.05
2023-03-24T09:15:25.092Z,29.81
2023-03-24T09:16:25.092Z,29.13
2023-03-24T09:17:25.101Z,29.47
2023-03-24T09:20:25.094Z,30.16
2023-03-24T09:21:25.110Z,28.73
2023-03-24T09:22:25.182Z,29.49
2023-03-24T09:23:25.145Z,29.57
2023-03-24T09:24:25.149Z,29.86
2023-03-24T09:25:25.218Z,29.44
2023-03-24T09:26:25.178Z,29.55
2023-03-24T09:28:25.199Z,31.43
2023-03-24T09:34:25.208Z,31.03
2023-03-24T09:35:25.209Z,30.68
2023-03-24T09:37:25.237Z,30.25
2023-03-24T09:38:25.267Z,30.20
2023-03-24T09:40:25.237Z,29.86
2023-03-24T09:41:25.207Z,29.78
2023-03-24T09:42:25.235Z,29.72
2023-03-24T09:45:25.190Z,29.41
2023-03-24T09:46:25.255Z,29.23
2023-03-24T09:47:25.243Z,29.11
2023-03-24T09:48:25.268Z,28.95
2023-03-24T09:49:25.221Z,29.22
2023-03-24T09:50:25.230Z,29.34
2023-03-24T09:54:25.246Z,30.45
2023-03-24T09:56:25.250Z,30.83
2023-03-24T09:57:25.326Z,30.96
2023-03-24T09:59:25.201Z,31.16
2023-03-24T10:00:25.197Z,31.56
2023-03-24T10:01:25.583Z,31.61
2023-03-24T10:04:25.210Z,31.73
2023-03-24T10:08:25.118Z,32.11
2023-03-24T10:09:25.098Z,32.25
2023-03-24T10:11:25.045Z,32.69
2023-03-24T10:12:25.132Z,32.80
2023-03-24T10:13:25.531Z,32.59
2023-03-24T10:14:24.995Z,32.82
2023-03-24T10:18:25.007Z,33.02
2023-03-24T10:20:24.918Z,33.03
2023-03-24T10:21:25.015Z,33.31
2023-03-24T10:23:24.854Z,33.29
2023-03-24T10:25:24.803Z,33.43
2023-03-24T10:26:24.783Z,33.49
2023-03-24T10:30:24.735Z,33.82
2023-03-24T10:31:24.815Z,33.91
2023-03-24T10:32:25.698Z,34.02
2023-03-24T10:33:24.707Z,33.83
2023-03-24T10:34:24.716Z,33.61
2023-03-24T10:35:25.559Z,33.87
2023-03-24T10:37:24.726Z,34.04
2023-03-24T10:38:24.584Z,34.04
2023-03-24T10:39:34.319Z,34.12
2023-03-24T10:40:25.733Z,33.99
2023-03-24T10:41:25.525Z,34.17
2023-03-24T10:42:24.523Z,34.80
2023-03-24T10:44:24.480Z,34.65
2023-03-24T10:49:24.339Z,33.63
2023-03-24T10:50:24.357Z,33.62
2023-03-24T10:51:24.303Z,33.41
2023-03-24T10:52:24.338Z,33.75
2023-03-24T10:54:24.257Z,33.72
2023-03-24T10:56:24.212Z,34.12
2023-03-24T11:00:24.104Z,33.98
2023-03-24T11:01:24.156Z,34.14
2023-03-24T11:02:24.105Z,34.08
2023-03-24T11:04:24.049Z,34.02
2023-03-24T11:06:23.972Z,34.25
2023-03-24T11:09:23.886Z,34.10
2023-03-24T11:10:23.886Z,33.86
2023-03-24T11:11:23.842Z,34.02
2023-03-24T11:12:23.866Z,34.05
2023-03-24T11:17:23.785Z,34.45
2023-03-24T11:18:23.704Z,34.56
2023-03-24T11:19:23.795Z,34.72
2023-03-24T11:20:23.643Z,34.73
2023-03-24T11:21:23.591Z,34.64
2023-03-24T11:24:23.552Z,34.81
2023-03-24T11:28:23.479Z,34.39
2023-03-24T11:29:23.400Z,34.33
2023-03-24T11:30:23.367Z,34.32
2023-03-24T11:33:36.129Z,34.51
2023-03-24T11:34:24.299Z,34.53
2023-03-24T11:36:23.321Z,34.97
2023-03-24T11:40:23.115Z,35.19
2023-03-24T11:41:23.111Z,34.67
2023-03-24T11:42:23.068Z,33.97
2023-03-24T11:43:23.046Z,34.00
2023-03-24T11:44:23.096Z,33.37
2023-03-24T11:48:22.907Z,32.06
2023-03-24T11:49:22.885Z,31.78
2023-03-24T11:50:22.874Z,31.70
2023-03-24T11:51:22.837Z,31.66
2023-03-24T11:52:22.826Z,31.67
2023-03-24T11:54:22.764Z,31.18
2023-03-24T11:56:22.743Z,30.92
2023-03-24T11:59:22.678Z,30.20
2023-03-24T12:00:22.736Z,30.10
2023-03-24T12:01:22.719Z,30.15
2023-03-24T12:02:22.723Z,30.16
2023-03-24T12:03:22.629Z,29.84
2023-03-24T12:05:22.692Z,29.67
2023-03-24T12:06:22.641Z,29.77
2023-03-24T12:11:22.460Z,29.37
2023-03-24T12:12:22.435Z,29.29
2023-03-24T12:13:32.852Z,28.85
2023-03-24T12:14:23.582Z,28.97
2023-03-24T12:15:28.861Z,28.99
2023-03-24T12:16:23.610Z,29.17
2023-03-24T12:17:22.497Z,28.86
2023-03-24T12:22:22.431Z,29.17
2023-03-24T12:24:22.446Z,29.28
2023-03-24T12:25:22.373Z,29.40
2023-03-24T12:26:22.368Z,29.42
2023-03-24T12:27:22.344Z,29.32
2023-03-24T12:31:22.291Z,29.78
2023-03-24T12:32:22.299Z,30.18
2023-03-24T12:33:22.271Z,30.16
2023-03-24T12:34:22.211Z,30.07
2023-03-24T12:36:22.178Z,29.93
2023-03-24T12:37:22.185Z,29.86
2023-03-24T12:38:22.153Z,30.09
2023-03-24T12:41:24.873Z,30.04
2023-03-24T12:43:22.065Z,29.97
2023-03-24T12:44:22.028Z,30.07
2023-03-24T12:45:22.037Z,30.14
2023-03-24T12:46:22.084Z,29.81
2023-03-24T12:49:21.979Z,29.69
2023-03-24T12:51:22.102Z,30.26
2023-03-24T12:52:21.862Z,30.36
2023-03-24T12:53:21.840Z,30.46
2023-03-24T12:54:21.858Z,30.43
2023-03-24T12:55:21.833Z,30.17
2023-03-24T13:01:21.715Z,29.88
2023-03-24T13:02:21.662Z,29.82
2023-03-24T13:03:21.662Z,29.66
2023-03-24T13:04:21.646Z,29.76
2023-03-24T13:08:21.549Z,29.72
2023-03-24T13:11:32.397Z,29.72
2023-03-24T13:12:22.517Z,29.63
2023-03-24T13:13:21.498Z,29.71
2023-03-24T13:15:21.425Z,29.67
2023-03-24T13:16:21.477Z,29.56
2023-03-24T13:20:21.363Z,29.55
2023-03-24T13:21:21.356Z,29.45
2023-03-24T13:22:21.314Z,29.56
2023-03-24T13:25:21.284Z,29.51
2023-03-24T13:26:21.279Z,29.47
2023-03-24T13:28:21.208Z,29.38
2023-03-24T13:29:21.205Z,29.40
2023-03-24T13:31:21.201Z,29.36
2023-03-24T13:35:21.100Z,29.18
2023-03-24T13:36:21.133Z,29.18
2023-03-24T13:37:21.071Z,29.11
2023-03-24T13:39:21.022Z,29.20
2023-03-24T13:40:21.022Z,29.10
2023-03-24T13:42:20.979Z,29.08
2023-03-24T13:43:20.978Z,29.07
2023-03-24T13:45:20.932Z,29.12
2023-03-24T13:47:20.900Z,29.07
2023-03-24T13:48:20.921Z,29.12
2023-03-24T13:51:20.821Z,29.04
2023-03-24T13:52:20.836Z,29.03
2023-03-24T13:54:20.780Z,29.00
2023-03-24T13:55:20.767Z,29.02
2023-03-24T13:57:20.740Z,29.09
2023-03-24T13:58:20.705Z,28.98
2023-03-24T13:59:21.646Z,28.99
2023-03-24T14:03:20.833Z,28.97
2023-03-24T14:04:20.593Z,28.93
2023-03-24T14:06:20.539Z,28.90
2023-03-24T14:07:20.566Z,28.94
2023-03-24T14:08:20.496Z,28.93
2023-03-24T14:11:20.471Z,28.88
2023-03-24T14:13:20.409Z,28.87
2023-03-24T14:14:20.398Z,28.91
2023-03-24T14:15:20.397Z,28.86
2023-03-24T14:17:20.334Z,28.91
2023-03-24T14:18:20.328Z,28.71
2023-03-24T14:23:20.265Z,28.88
2023-03-24T14:25:20.247Z,28.80
2023-03-24T14:26:20.149Z,28.80
2023-03-24T14:27:20.130Z,28.78
2023-03-24T14:29:20.085Z,28.79
2023-03-24T14:30:20.081Z,28.67
2023-03-24T14:34:19.994Z,28.74
2023-03-24T14:35:19.990Z,28.71
2023-03-24T14:38:19.924Z,28.75
2023-03-24T14:39:19.892Z,28.80
2023-03-24T14:41:19.864Z,28.74
2023-03-24T14:44:19.830Z,28.58
2023-03-24T14:45:19.809Z,28.55
2023-03-24T14:46:19.840Z,28.54
2023-03-24T14:47:19.751Z,28.55
2023-03-24T14:50:19.699Z,28.45
2023-03-24T14:52:19.654Z,28.41
2023-03-24T14:54:19.638Z,28.45
2023-03-24T14:55:19.663Z,28.40
2023-03-24T15:00:19.495Z,28.42
2023-03-24T15:02:19.434Z,28.41
2023-03-24T15:03:19.481Z,28.34
2023-03-24T15:05:21.922Z,28.33
2023-03-24T15:06:19.344Z,28.36
2023-03-24T15:10:19.284Z,28.29
2023-03-24T15:12:19.230Z,28.38
2023-03-24T15:13:19.220Z,28.33
2023-03-24T15:14:19.210Z,28.35
2023-03-24T15:16:19.206Z,28.25
2023-03-24T15:17:19.167Z,28.30
2023-03-24T15:22:19.089Z,28.34
2023-03-24T15:23:19.064Z,28.29
2023-03-24T15:24:19.029Z,28.36
2023-03-24T15:27:19.061Z,28.26
2023-03-24T15:29:18.941Z,28.36
2023-03-24T15:32:18.882Z,28.44
2023-03-24T15:33:18.884Z,28.34
2023-03-24T15:35:18.833Z,28.38
2023-03-24T15:36:18.806Z,28.40
2023-03-24T15:37:18.784Z,28.44
2023-03-24T15:40:18.716Z,28.39
2023-03-24T15:43:18.768Z,28.41
2023-03-24T15:45:18.648Z,28.41
2023-03-24T15:48:18.619Z,28.41
2023-03-24T15:52:18.570Z,28.47
2023-03-24T15:53:18.695Z,28.42
2023-03-24T15:54:18.541Z,28.45
2023-03-24T15:56:18.540Z,28.44
2023-03-24T15:57:18.521Z,28.44
2023-03-24T15:59:18.497Z,28.44
2023-03-24T16:03:18.482Z,28.38
2023-03-24T16:04:18.483Z,28.38
2023-03-24T16:05:18.417Z,28.39
2023-03-24T16:06:18.417Z,28.36
2023-03-24T16:09:18.446Z,28.39
2023-03-24T16:10:18.392Z,28.34
2023-03-24T16:11:18.387Z,28.36
2023-03-24T16:13:18.371Z,28.34
2023-03-24T16:14:18.368Z,28.36
2023-03-24T16:16:18.369Z,28.40
2023-03-24T16:18:18.332Z,28.40
2023-03-24T16:20:18.303Z,28.32
2023-03-24T16:21:18.293Z,28.37
2023-03-24T16:22:18.262Z,28.37
2023-03-24T16:24:18.261Z,28.36
2023-03-24T16:26:18.227Z,28.40
2023-03-24T16:27:18.215Z,28.30
2023-03-24T16:28:18.216Z,28.37
2023-03-24T16:29:18.215Z,28.37
2023-03-24T16:35:18.230Z,28.36
2023-03-24T16:37:18.148Z,28.37
2023-03-24T16:38:18.132Z,28.42
2023-03-24T16:40:18.120Z,28.38
2023-03-24T16:41:18.099Z,28.34
2023-03-24T16:42:18.107Z,28.36
2023-03-24T16:45:18.092Z,28.37
2023-03-24T16:46:18.146Z,28.41
2023-03-24T16:47:18.094Z,28.39
2023-03-24T16:48:18.065Z,28.47
2023-03-24T16:51:18.051Z,28.45
2023-03-24T16:52:19.328Z,28.50
2023-03-24T16:53:18.080Z,28.48
2023-03-24T16:54:18.046Z,28.49
2023-03-24T16:56:18.031Z,28.45
2023-03-24T16:58:18.013Z,28.50
2023-03-24T16:59:17.996Z,28.45
2023-03-24T17:00:18.011Z,28.50
2023-03-24T17:01:18.010Z,28.48
2023-03-24T17:04:17.979Z,28.50
2023-03-24T17:05:17.953Z,28.50
2023-03-24T17:06:17.946Z,28.52
2023-03-24T17:08:17.956Z,28.50
2023-03-24T17:10:17.910Z,28.52
2023-03-24T17:11:17.880Z,28.50
2023-03-24T17:15:17.866Z,28.52
2023-03-24T17:16:17.900Z,28.55
2023-03-24T17:18:17.839Z,28.51
2023-03-24T17:19:17.845Z,28.55
2023-03-24T17:20:17.845Z,28.51
2023-03-24T17:22:17.818Z,28.48
2023-03-24T17:23:17.826Z,28.51
2023-03-24T17:25:17.808Z,28.47
2023-03-24T17:28:17.799Z,28.50
2023-03-24T17:29:17.798Z,28.51
2023-03-24T17:30:17.786Z,28.51
2023-03-24T17:31:17.799Z,28.44
2023-03-24T17:32:18.887Z,28.54
2023-03-24T17:34:21.646Z,28.48
2023-03-24T17:35:17.831Z,28.53
2023-03-24T17:36:17.764Z,28.55
2023-03-24T17:39:17.749Z,28.51
2023-03-24T17:40:17.745Z,28.45
2023-03-24T17:41:17.759Z,28.50
2023-03-24T17:42:17.732Z,28.53
2023-03-24T17:45:17.719Z,28.55
2023-03-24T17:46:17.871Z,28.51
2023-03-24T17:47:17.737Z,28.48
2023-03-24T17:51:17.772Z,28.48
2023-03-24T17:52:17.709Z,28.53
2023-03-24T17:53:17.685Z,28.55
2023-03-24T17:54:17.713Z,28.58
2023-03-24T17:56:17.682Z,28.53
2023-03-24T17:57:17.700Z,28.55
2023-03-24T17:58:17.724Z,28.52
2023-03-24T17:59:17.693Z,28.53
2023-03-24T18:00:17.693Z,28.53
2023-03-24T18:01:17.759Z,28.52
2023-03-24T18:02:17.704Z,28.53
2023-03-24T18:03:17.705Z,28.48
2023-03-24T18:04:17.780Z,28.53
2023-03-24T18:05:17.767Z,28.52
2023-03-24T18:09:17.698Z,28.53
2023-03-24T18:10:17.702Z,28.54
2023-03-24T18:11:17.705Z,28.60
2023-03-24T18:12:17.719Z,28.53
2023-03-24T18:13:17.719Z,28.54
2023-03-24T18:14:17.709Z,28.53
2023-03-24T18:15:17.735Z,28.50
2023-03-24T18:18:17.719Z,28.53
2023-03-24T18:19:17.737Z,28.53
2023-03-24T18:20:17.717Z,28.56
2023-03-24T18:21:17.746Z,28.56
2023-03-24T18:22:17.719Z,28.54
2023-03-24T18:24:17.720Z,28.54
2023-03-24T18:26:17.765Z,28.57
2023-03-24T18:27:17.760Z,28.56
2023-03-24T18:28:17.757Z,28.58
2023-03-24T18:29:17.763Z,28.51
2023-03-24T18:30:17.771Z,28.61
2023-03-24T18:31:17.741Z,28.56
2023-03-24T18:32:17.747Z,28.51
2023-03-24T18:33:17.767Z,28.55
2023-03-24T18:35:17.839Z,28.52
2023-03-24T18:36:17.766Z,28.54
2023-03-24T18:37:17.752Z,28.58
2023-03-24T18:39:17.761Z,28.63